Radar

TAFs

KFDY 251742Z 2518/2618 28012G20KT P6SM VCSH SCT025 BKN050
     TEMPO 2518/2520 29010G20KT 5SM -SHRA BKN030
   FM252100 28012G22KT P6SM VCSH BKN025
   FM260000 28010KT P6SM BKN040
   FM260800 25009KT P6SM SCT100
   FM261400 27015G25KT P6SM SCT060
KTOL 251742Z 2518/2618 29010KT P6SM VCSH BKN025
     TEMPO 2518/2520 29010G20KT 5SM -SHRA
   FM252000 28012G20KT P6SM VCSH BKN035
   FM260000 28009KT P6SM BKN040
   FM261500 27012G22KT P6SM BKN030
KCLE 251742Z 2518/2624 27012G20KT P6SM VCSH BKN035
     TEMPO 2521/2601 5SM -SHRA BKN025
   FM260200 24012KT P6SM VCSH BKN040
   FM261500 25015G25KT P6SM VCSH BKN040
KDTW 251737Z 2518/2624 29009KT P6SM SCT015 BKN020 OVC040
     TEMPO 2518/2521 -SHRA BKN015 OVC030
   FM252100 26010G18KT P6SM SCT025 BKN035 OVC050
     TEMPO 2603/2606 6SM -RA BKN025
   FM260600 27009KT P6SM SCT030 BKN045
   FM261400 26014KT P6SM BKN025 BKN040
KFWA 251725Z 2518/2618 29013G23KT 6SM -SHRA BKN018
   FM252000 29014G23KT 6SM -SHRA VCTS BKN045CB
   FM260100 28010G19KT P6SM SCT100
   FM261500 28013G23KT P6SM SCT080
KJXN 251720Z 2518/2618 30010G18KT P6SM -SHRA SCT007 BKN015
     TEMPO 2518/2520 3SM -SHRA
   FM252000 30011G21KT P6SM -SHRA BKN025
   FM252100 30011G21KT P6SM -SHRA BKN035
   FM260100 28011G28KT P6SM -SHRA VCTS BKN050CB
   FM260500 26010KT P6SM VCSH BKN035
   FM261300 29012G22KT P6SM -SHRA BKN025

METARs

KDUH 251835Z AUTO 29007G14KT 10SM SCT028 SCT049 OVC060 19/12 A2965 RMK AO2 T01870116
KCLE 251828Z 28010KT 10SM SCT021 BKN027 BKN050 18/13 A2961 RMK AO2 T01830128
KFDY 251807Z AUTO 27016G21KT 10SM BKN028 OVC035 18/13 A2968 RMK AO2 T01830133
KTOL 251759Z 25010KT 10SM SCT027 BKN035 OVC046 19/13 A2966 RMK AO2 T01890133
KJXN 251756Z 25011G19KT 10SM FEW027 BKN046 OVC055 16/13 A2967 RMK AO2 RAB29E38 SLP045 P0000 60001 T01610128 10178 20133 53001
KFWA 251754Z 28010G18KT 10SM FEW017 BKN035 BKN049 18/13 A2974 RMK AO2 SLP066 60001 T01780128 10178 20139 50004
KDTW 251753Z 29012KT 10SM SCT024 BKN038 OVC065 18/12 A2964 RMK AO2 SLP035 60005 T01780122 10183 20139 50002
KTDZ 251753Z AUTO 28015KT 10SM FEW032 FEW041 OVC055 19/13 A2966 RMK AO2 SLP042 T01890128 10194 20156 50002

Satellite

TFRs